Time;durP1;ratioP1;P1;durP2;ratioP2;P2;SDS_P1;SDS_P2;PMS_P1;PMS_P2;Temp;Humidity;BMP_temperature;BMP_pressure;BME280_temperature;BME280_humidity;BME280_pressure;Samples;Min_cycle;Max_cycle;Signal;HPM_P1;HPM_P2
2022/07/20 00:01:34;;;;;;;9.27;3.92;;;;;;;27.60;44.49;101131.13;5078007;28;20028;-69
2022/07/20 00:04:00;;;;;;;7.80;3.55;;;;;;;27.61;45.03;101102.28;5096340;28;20103;-68
2022/07/20 00:06:25;;;;;;;8.02;4.25;;;;;;;27.58;43.90;101114.97;5096536;28;20020;-69
2022/07/20 00:11:34;;;;;;;8.27;3.65;;;;;;;27.70;43.68;101134.22;5106906;28;20497;-69
2022/07/20 00:14:02;;;;;;;15.95;3.97;;;;;;;27.80;44.21;101146.34;5113222;28;20103;-68
2022/07/20 00:16:30;;;;;;;7.55;3.78;;;;;;;27.86;44.97;101137.03;5096239;28;20020;-69
2022/07/20 00:18:55;;;;;;;8.20;3.90;;;;;;;27.89;44.30;101128.75;5102465;28;20020;-69
2022/07/20 00:21:21;;;;;;;11.75;3.70;;;;;;;27.86;46.66;101128.91;5116592;28;20460;-69
2022/07/20 00:23:47;;;;;;;14.10;4.45;;;;;;;27.81;46.97;101115.66;5084326;28;20035;-68
2022/07/20 00:26:12;;;;;;;17.90;4.38;;;;;;;27.73;47.24;101112.47;5116348;28;20068;-69
2022/07/20 00:28:38;;;;;;;11.60;3.55;;;;;;;27.59;48.05;101115.84;5116396;28;20084;-69
2022/07/20 00:31:04;;;;;;;8.93;4.03;;;;;;;27.49;48.02;101115.44;5105505;28;20449;-72
2022/07/20 00:33:29;;;;;;;6.10;3.55;;;;;;;27.32;49.13;101108.16;5109710;28;20111;-70
2022/07/20 00:35:55;;;;;;;9.45;3.88;;;;;;;27.33;47.95;101103.63;5095803;28;20094;-70
2022/07/20 00:38:20;;;;;;;8.52;3.50;;;;;;;27.26;48.01;101108.44;5095686;28;20107;-70
2022/07/20 00:40:46;;;;;;;12.13;3.97;;;;;;;27.18;48.94;101111.53;5077209;28;20060;-69
2022/07/20 00:43:11;;;;;;;8.85;3.75;;;;;;;27.05;49.68;101121.19;5096003;28;20042;-70
2022/07/20 00:45:37;;;;;;;8.68;3.50;;;;;;;26.89;52.59;101100.31;5095542;28;20024;-71
2022/07/20 00:48:02;;;;;;;6.68;3.30;;;;;;;26.66;53.26;101109.47;5095698;28;20479;-69
2022/07/20 00:50:28;;;;;;;6.88;3.60;;;;;;;26.69;52.14;101098.53;5095613;28;20058;-70
2022/07/20 00:52:53;;;;;;;14.23;3.90;;;;;;;26.62;51.42;101101.59;5095538;28;20020;-70
2022/07/20 00:55:19;;;;;;;9.35;4.07;;;;;;;26.57;51.49;101108.09;5095981;28;20044;-70
2022/07/20 00:57:44;;;;;;;10.00;3.88;;;;;;;26.53;53.32;101106.50;5097871;28;20035;-70
2022/07/20 01:00:12;;;;;;;7.03;3.53;;;;;;;26.52;53.07;101107.44;5115927;28;20035;-70
2022/07/20 01:02:38;;;;;;;9.38;3.42;;;;;;;26.61;52.39;101106.09;5112908;28;20076;-71
2022/07/20 01:05:13;;;;;;;7.22;3.38;;;;;;;26.58;52.16;101107.13;5095147;28;20017;-71
2022/07/20 01:07:39;;;;;;;10.18;4.15;;;;;;;26.53;53.94;101103.78;5099024;28;20023;-70
2022/07/20 01:10:05;;;;;;;9.68;3.90;;;;;;;26.41;53.32;101109.72;5115540;28;20157;-70
2022/07/20 01:12:30;;;;;;;5.43;3.60;;;;;;;26.36;55.49;101100.97;5111390;28;20087;-69
2022/07/20 01:14:56;;;;;;;4.32;3.78;;;;;;;26.33;53.56;101112.78;5094992;28;20107;-69
2022/07/20 01:17:21;;;;;;;12.70;3.85;;;;;;;26.32;55.03;101112.88;5076489;28;20030;-68
2022/07/20 01:19:46;;;;;;;5.30;3.35;;;;;;;26.34;53.61;101111.81;5108319;28;20027;-69
2022/07/20 01:22:11;;;;;;;8.93;4.03;;;;;;;26.39;54.61;101111.63;5110400;28;20016;-70
2022/07/20 01:24:37;;;;;;;7.43;3.67;;;;;;;26.31;55.50;101113.81;5094949;28;20024;-69
2022/07/20 01:27:05;;;;;;;6.43;3.45;;;;;;;26.16;56.56;101127.03;5094715;28;20032;-70
2022/07/20 01:29:31;;;;;;;10.93;4.10;;;;;;;26.14;57.59;101133.41;5076634;28;20077;-70
2022/07/20 01:31:56;;;;;;;10.13;3.78;;;;;;;26.08;55.86;101130.03;5094681;28;20028;-70
2022/07/20 01:34:21;;;;;;;8.40;3.75;;;;;;;25.99;56.05;101134.94;5094497;28;20089;-69
2022/07/20 01:36:47;;;;;;;7.70;3.67;;;;;;;25.91;56.55;101130.75;5094245;28;20448;-70
2022/07/20 01:39:13;;;;;;;7.10;3.55;;;;;;;25.93;54.33;101139.66;5076462;28;20123;-71
2022/07/20 01:41:38;;;;;;;13.02;4.22;;;;;;;25.92;54.01;101145.09;5108016;28;20034;-69
2022/07/20 01:44:04;;;;;;;9.63;4.32;;;;;;;25.98;55.67;101141.25;5094827;28;20028;-69
2022/07/20 01:46:29;;;;;;;17.88;5.20;;;;;;;25.92;60.37;101145.09;5094908;28;20090;-70
2022/07/20 01:48:54;;;;;;;13.52;6.45;;;;;;;25.83;63.48;101162.56;5095052;28;20028;-70
2022/07/20 01:51:19;;;;;;;16.98;5.45;;;;;;;25.84;63.84;101156.25;5108262;28;20430;-70
2022/07/20 01:53:45;;;;;;;12.25;5.85;;;;;;;25.80;65.37;101165.41;5076190;28;20097;-70
2022/07/20 01:56:10;;;;;;;21.63;7.72;;;;;;;25.59;69.86;101162.63;5094859;28;20073;-70
2022/07/20 01:58:35;;;;;;;21.83;8.52;;;;;;;25.38;76.33;101176.97;5104998;28;20080;-70
2022/07/20 02:01:01;;;;;;;23.95;10.15;;;;;;;25.22;82.03;101172.19;5114581;28;20077;-70
2022/07/20 02:03:26;;;;;;;22.70;9.85;;;;;;;25.19;85.22;101179.50;5114747;28;20031;-70
2022/07/20 02:05:52;;;;;;;19.95;11.10;;;;;;;25.12;88.96;101192.31;5097172;28;20494;-69
2022/07/20 02:08:17;;;;;;;29.38;11.73;;;;;;;25.01;93.95;101183.81;5093879;28;20024;-69
2022/07/20 02:10:42;;;;;;;26.90;12.57;;;;;;;25.00;nan;101187.41;5093871;28;20099;-69
2022/07/20 02:13:07;;;;;;;26.20;13.15;;;;;;;24.83;100.00;101175.50;5094082;28;20468;-70
2022/07/20 02:18:17;;;;;;;28.27;14.18;;;;;;;24.86;100.00;101175.34;5107564;28;20034;-69
2022/07/20 02:20:42;;;;;;;20.00;13.68;;;;;;;24.88;100.00;101178.88;5100972;28;20402;-69
2022/07/20 02:23:09;;;;;;;25.80;14.98;;;;;;;24.76;100.00;101190.13;5096502;28;20031;-70
2022/07/20 02:25:37;;;;;;;37.65;16.50;;;;;;;24.66;100.00;101183.31;5109052;28;20054;-69
2022/07/20 02:28:06;;;;;;;32.22;17.08;;;;;;;24.66;100.00;101180.63;5094147;28;20531;-69
2022/07/20 02:30:32;;;;;;;30.92;17.35;;;;;;;24.49;100.00;101175.84;5094047;28;20131;-69
2022/07/20 02:32:57;;;;;;;31.02;16.83;;;;;;;24.41;100.00;101173.41;5093507;28;20024;-69
2022/07/20 02:35:23;;;;;;;36.33;18.40;;;;;;;24.45;100.00;101175.06;5093740;28;20030;-69
2022/07/20 02:37:48;;;;;;;31.23;17.58;;;;;;;24.47;100.00;101165.16;5094228;28;20352;-70
2022/07/20 02:40:13;;;;;;;33.03;18.70;;;;;;;24.51;100.00;101166.78;5075314;28;20028;-69
2022/07/20 02:42:39;;;;;;;33.72;18.45;;;;;;;24.51;100.00;101164.09;5075619;28;20026;-70
2022/07/20 02:45:05;;;;;;;33.85;19.02;;;;;;;24.38;100.00;101168.16;5093437;28;20028;-69
2022/07/20 02:47:30;;;;;;;44.40;20.02;;;;;;;24.21;100.00;101168.75;5093865;28;20021;-69
2022/07/20 02:49:55;;;;;;;41.03;20.48;;;;;;;24.25;100.00;101178.47;5093224;28;20023;-69
2022/07/20 02:52:21;;;;;;;40.63;18.83;;;;;;;24.34;100.00;101182.66;5093769;28;20074;-69
2022/07/20 02:54:46;;;;;;;45.97;20.98;;;;;;;24.29;100.00;101182.81;5093747;28;20031;-70
2022/07/20 02:57:11;;;;;;;37.70;21.25;;;;;;;24.26;100.00;101192.81;5093653;28;20020;-70
2022/07/20 02:59:37;;;;;;;40.97;21.50;;;;;;;24.17;100.00;101186.81;5093483;28;20067;-70
2022/07/20 03:02:02;;;;;;;38.45;23.02;;;;;;;24.02;100.00;101182.84;5093566;28;20508;-70
2022/07/20 03:04:27;;;;;;;43.83;24.83;;;;;;;23.95;100.00;101186.66;5093386;28;20024;-69
2022/07/20 03:06:53;;;;;;;43.65;25.35;;;;;;;24.07;100.00;101178.19;5105571;28;20016;-69
2022/07/20 03:09:18;;;;;;;46.25;27.50;;;;;;;24.04;100.00;101188.19;5095193;28;20027;-70
2022/07/20 03:11:43;;;;;;;48.15;27.30;;;;;;;24.00;100.00;101183.84;5101362;28;20024;-70
2022/07/20 03:14:08;;;;;;;48.22;28.23;;;;;;;23.93;100.00;101199.28;5075144;28;20016;-71
2022/07/20 03:16:34;;;;;;;50.40;28.23;;;;;;;24.04;100.00;101194.41;5093361;28;20494;-71
2022/07/20 03:18:59;;;;;;;51.45;26.55;;;;;;;23.98;100.00;101186.53;5096433;28;20026;-70
2022/07/20 03:21:25;;;;;;;46.80;27.10;;;;;;;23.97;100.00;101198.25;5108670;28;20038;-69
2022/07/20 03:23:51;;;;;;;47.00;27.63;;;;;;;23.90;100.00;101194.91;5103386;28;20024;-69
2022/07/20 03:26:18;;;;;;;45.90;27.40;;;;;;;24.00;100.00;101194.59;5117928;28;20028;-69
2022/07/20 03:28:44;;;;;;;42.78;26.42;;;;;;;24.01;100.00;101190.94;5117355;28;20024;-69
2022/07/20 03:31:09;;;;;;;45.50;27.38;;;;;;;23.87;100.00;101194.94;5105568;28;20463;-69
2022/07/20 03:33:34;;;;;;;48.38;28.55;;;;;;;23.93;100.00;101201.97;5096836;28;20375;-69
2022/07/20 03:36:00;;;;;;;47.50;26.73;;;;;;;23.93;100.00;101201.09;5096727;28;20117;-70
2022/07/20 03:38:25;;;;;;;43.15;26.70;;;;;;;23.81;100.00;101205.03;5096722;28;20032;-70
2022/07/20 03:40:50;;;;;;;46.60;26.60;;;;;;;23.86;100.00;101217.41;5078401;28;20028;-70
2022/07/20 03:43:16;;;;;;;41.63;26.60;;;;;;;23.87;100.00;101229.88;5097079;28;20432;-70
2022/07/20 03:45:41;;;;;;;47.13;28.25;;;;;;;23.53;100.00;101244.41;5108186;28;20023;-70
2022/07/20 03:48:06;;;;;;;45.03;27.10;;;;;;;23.66;100.00;101244.03;5112362;28;20031;-70
2022/07/20 03:50:31;;;;;;;47.92;25.38;;;;;;;23.55;100.00;101253.31;5078616;28;20027;-68
2022/07/20 03:52:57;;;;;;;44.55;25.73;;;;;;;23.58;100.00;101239.78;5110285;28;20376;-70
2022/07/20 03:55:22;;;;;;;45.33;26.58;;;;;;;23.45;100.00;101242.91;5078427;28;20102;-70
2022/07/20 03:57:47;;;;;;;39.97;26.15;;;;;;;23.37;100.00;101243.13;5110157;28;20023;-70
2022/07/20 04:00:13;;;;;;;45.28;25.63;;;;;;;23.49;100.00;101248.09;5096493;28;20020;-69
2022/07/20 04:02:39;;;;;;;44.80;26.35;;;;;;;23.61;100.00;101248.69;5096407;28;20020;-71
2022/07/20 04:05:05;;;;;;;40.92;26.30;;;;;;;23.62;100.00;101242.38;5107109;28;20421;-70
2022/07/20 04:07:30;;;;;;;43.50;25.58;;;;;;;23.64;100.00;101251.25;5116871;28;20023;-70
2022/07/20 04:09:55;;;;;;;43.10;25.35;;;;;;;23.60;100.00;101255.84;5106260;28;20471;-70
2022/07/20 04:12:23;;;;;;;44.78;25.25;;;;;;;23.67;100.00;101259.22;5096128;28;20445;-70
2022/07/20 04:14:50;;;;;;;44.28;24.33;;;;;;;23.58;100.00;101255.03;5106957;28;20023;-70
2022/07/20 04:17:16;;;;;;;41.78;24.15;;;;;;;23.54;100.00;101262.28;5112045;28;20502;-70
2022/07/20 04:19:42;;;;;;;44.05;24.63;;;;;;;23.64;100.00;101264.69;5097286;28;20133;-70
2022/07/20 04:22:08;;;;;;;48.20;25.20;;;;;;;23.79;100.00;101266.00;5095960;28;20019;-70
2022/07/20 04:24:34;;;;;;;43.38;25.73;;;;;;;23.86;100.00;101268.47;5105376;28;20020;-70
2022/07/20 04:27:00;;;;;;;42.47;24.50;;;;;;;23.93;100.00;101273.66;5095727;28;20028;-71
2022/07/20 04:29:25;;;;;;;44.38;24.58;;;;;;;24.06;100.00;101275.00;5106037;28;20023;-70
2022/07/20 04:31:51;;;;;;;37.83;24.58;;;;;;;24.00;100.00;101272.53;5097881;28;20056;-70
2022/07/20 04:34:16;;;;;;;44.42;23.48;;;;;;;24.02;100.00;101276.03;5106500;28;20028;-70
2022/07/20 04:36:42;;;;;;;38.70;22.35;;;;;;;24.13;100.00;101273.88;5112036;28;20089;-70
2022/07/20 04:39:07;;;;;;;34.22;23.38;;;;;;;24.09;100.00;101274.91;5106366;28;20023;-71
2022/07/20 04:41:33;;;;;;;39.35;22.42;;;;;;;24.15;100.00;101290.84;5111957;28;20111;-71
2022/07/20 04:43:58;;;;;;;32.40;22.13;;;;;;;24.25;100.00;101291.41;5095542;28;20031;-71
2022/07/20 04:46:24;;;;;;;33.95;20.52;;;;;;;24.19;100.00;101305.94;5095413;28;20039;-70
2022/07/20 04:48:49;;;;;;;30.55;20.05;;;;;;;24.19;100.00;101302.41;5095115;28;20349;-70
2022/07/20 04:51:14;;;;;;;32.25;18.23;;;;;;;24.15;100.00;101309.66;5095148;28;20023;-70
2022/07/20 04:53:40;;;;;;;29.42;18.02;;;;;;;24.20;100.00;101307.72;5095113;28;20020;-70
2022/07/20 04:56:05;;;;;;;26.48;17.20;;;;;;;24.23;100.00;101315.66;5099186;28;20050;-70
2022/07/20 04:58:31;;;;;;;28.52;15.73;;;;;;;24.21;98.60;101309.47;5115575;28;20028;-69
2022/07/20 05:00:57;;;;;;;24.10;14.75;;;;;;;24.25;99.05;101321.00;5098203;28;20016;-70
2022/07/20 05:03:22;;;;;;;23.80;15.63;;;;;;;24.23;99.12;101314.81;5105518;28;20108;-69
2022/07/20 05:05:48;;;;;;;22.23;14.30;;;;;;;24.20;98.23;101315.78;5098060;28;20071;-69
2022/07/20 05:08:13;;;;;;;20.63;14.00;;;;;;;24.22;97.78;101315.72;5105454;28;20106;-71
2022/07/20 05:10:39;;;;;;;16.55;13.52;;;;;;;24.29;97.54;101311.88;5112070;28;20028;-70
2022/07/20 05:13:04;;;;;;;24.10;14.35;;;;;;;24.28;96.72;101314.63;5095076;28;20081;-70
2022/07/20 05:15:29;;;;;;;21.33;13.55;;;;;;;24.33;96.61;101312.69;5108577;28;20016;-70
2022/07/20 05:17:54;;;;;;;19.10;14.18;;;;;;;24.36;95.03;101315.25;5095056;28;20023;-70
2022/07/20 05:20:20;;;;;;;25.20;13.07;;;;;;;24.42;94.70;101328.53;5099002;28;20036;-70
2022/07/20 05:22:45;;;;;;;28.42;14.60;;;;;;;24.35;94.43;101327.84;5109892;28;20020;-70
2022/07/20 05:25:11;;;;;;;24.55;12.77;;;;;;;24.38;95.43;101326.84;5096883;28;20039;-70
2022/07/20 05:27:36;;;;;;;20.90;12.38;;;;;;;24.20;95.64;101339.09;5115170;28;20015;-70
2022/07/20 05:30:04;;;;;;;19.15;12.48;;;;;;;24.12;96.14;101320.53;5114792;28;20382;-70
2022/07/20 05:32:29;;;;;;;18.58;12.57;;;;;;;24.13;96.49;101341.09;5115110;28;20027;-70
2022/07/20 05:34:55;;;;;;;21.65;12.18;;;;;;;24.15;97.00;101344.63;5115001;28;20054;-71
2022/07/20 05:37:20;;;;;;;22.50;11.65;;;;;;;24.18;97.30;101354.41;5115088;28;20027;-70
2022/07/20 05:39:45;;;;;;;21.80;11.90;;;;;;;24.03;98.12;101355.78;5100903;28;20468;-69
2022/07/20 05:42:11;;;;;;;22.00;11.73;;;;;;;24.18;98.19;101366.03;5114651;28;20068;-70
2022/07/20 05:44:36;;;;;;;22.75;12.00;;;;;;;24.06;98.67;101374.50;5114569;28;20554;-70
2022/07/20 05:47:02;;;;;;;17.77;11.35;;;;;;;23.99;100.00;101372.94;5114947;28;20035;-70
2022/07/20 05:49:27;;;;;;;21.35;11.77;;;;;;;24.14;99.57;101385.00;5114782;28;20070;-69
2022/07/20 05:51:53;;;;;;;19.42;11.88;;;;;;;24.01;99.93;101371.97;5114535;28;20051;-70
2022/07/20 05:54:18;;;;;;;18.52;11.57;;;;;;;24.03;100.00;101382.66;5114365;28;20061;-69
2022/07/20 05:56:43;;;;;;;20.50;11.35;;;;;;;24.21;100.00;101365.94;5114281;28;20443;-70
2022/07/20 05:59:09;;;;;;;21.17;11.15;;;;;;;24.07;100.00;101369.06;5114199;28;20424;-70
2022/07/20 06:01:34;;;;;;;22.42;11.60;;;;;;;24.17;100.00;101380.44;5114269;28;20024;-70
2022/07/20 06:04:00;;;;;;;23.20;10.70;;;;;;;24.05;100.00;101391.53;5114085;28;20027;-70
2022/07/20 06:06:25;;;;;;;23.83;11.85;;;;;;;24.15;100.00;101393.03;5114341;28;20531;-70
2022/07/20 06:08:51;;;;;;;19.55;10.70;;;;;;;24.24;100.00;101395.44;5114418;28;20027;-71
2022/07/20 06:11:16;;;;;;;20.80;10.75;;;;;;;24.27;100.00;101393.56;5114333;28;20062;-70
2022/07/20 06:13:41;;;;;;;20.50;10.40;;;;;;;24.32;100.00;101410.44;5112169;28;20032;-70
2022/07/20 06:16:07;;;;;;;17.90;10.13;;;;;;;24.39;100.00;101422.75;5093833;28;20107;-71
2022/07/20 06:18:32;;;;;;;24.33;11.50;;;;;;;24.31;100.00;101436.47;5096806;28;20027;-71
2022/07/20 06:20:57;;;;;;;19.35;10.93;;;;;;;24.28;100.00;101438.34;5113379;28;20020;-71
2022/07/20 06:23:23;;;;;;;22.88;10.35;;;;;;;23.96;100.00;101451.84;5103553;28;20227;-70
2022/07/20 06:25:48;;;;;;;21.75;11.38;;;;;;;24.04;100.00;101459.72;5076551;28;20035;-69
2022/07/20 06:28:14;;;;;;;27.90;11.55;;;;;;;24.16;100.00;101475.47;5107824;28;20024;-69
2022/07/20 06:30:39;;;;;;;19.20;10.82;;;;;;;24.06;100.00;101474.88;5107760;28;20111;-69
2022/07/20 06:33:05;;;;;;;18.25;10.63;;;;;;;24.01;100.00;101492.03;5093484;28;20494;-68
2022/07/20 06:35:30;;;;;;;22.38;10.43;;;;;;;24.11;100.00;101509.66;5093906;28;20012;-70
2022/07/20 06:37:56;;;;;;;20.90;10.85;;;;;;;24.03;100.00;101507.19;5094041;28;20028;-70
2022/07/20 06:40:21;;;;;;;19.48;10.57;;;;;;;24.02;100.00;101509.94;5093637;28;20024;-70
2022/07/20 06:42:47;;;;;;;20.00;9.90;;;;;;;24.03;100.00;101511.72;5093775;28;20110;-70
2022/07/20 06:45:12;;;;;;;25.65;10.13;;;;;;;24.11;100.00;101525.81;5093679;28;20514;-71
2022/07/20 06:47:37;;;;;;;17.52;9.15;;;;;;;24.13;100.00;101540.06;5093581;28;20424;-72
2022/07/20 06:50:04;;;;;;;27.45;10.90;;;;;;;23.95;100.00;101543.31;5093380;28;20031;-70
2022/07/20 06:52:33;;;;;;;23.98;10.23;;;;;;;24.11;100.00;101551.81;5106693;28;20062;-70
2022/07/20 06:54:58;;;;;;;25.23;10.90;;;;;;;23.89;100.00;101547.94;5110844;28;20035;-71
2022/07/20 06:57:24;;;;;;;18.27;10.55;;;;;;;23.81;100.00;101544.53;5110959;28;20379;-70
2022/07/20 06:59:49;;;;;;;25.02;10.13;;;;;;;23.94;100.00;101560.34;5097948;28;20489;-71
2022/07/20 07:02:14;;;;;;;22.98;9.48;;;;;;;23.85;100.00;101573.09;5097595;28;20028;-70
2022/07/20 07:04:40;;;;;;;21.75;9.45;;;;;;;23.93;100.00;101564.84;5103923;28;20387;-73
2022/07/20 07:07:05;;;;;;;21.63;10.18;;;;;;;23.80;100.00;101569.66;5104699;28;20115;-70
2022/07/20 07:09:31;;;;;;;18.52;10.35;;;;;;;23.64;100.00;101573.66;5097582;28;20464;-70
2022/07/20 07:11:56;;;;;;;23.20;9.73;;;;;;;23.58;100.00;101578.28;5110322;28;20047;-70
2022/07/20 07:14:22;;;;;;;16.45;9.43;;;;;;;23.66;100.00;101583.47;5111869;28;20540;-71
2022/07/20 07:16:47;;;;;;;16.73;8.30;;;;;;;23.71;100.00;101572.56;5097559;28;20479;-70
2022/07/20 07:19:13;;;;;;;20.25;8.55;;;;;;;23.73;100.00;101568.06;5105897;28;20490;-70
2022/07/20 07:21:38;;;;;;;18.80;9.07;;;;;;;23.69;100.00;101571.75;5117818;28;20030;-69
2022/07/20 07:24:04;;;;;;;17.75;8.77;;;;;;;23.63;100.00;101579.97;5103209;28;20026;-69
2022/07/20 07:26:29;;;;;;;18.83;9.57;;;;;;;23.64;100.00;101573.66;5117835;28;20028;-70
2022/07/20 07:28:54;;;;;;;24.20;9.38;;;;;;;23.71;100.00;101570.78;5117651;28;20077;-70
2022/07/20 07:31:20;;;;;;;16.92;8.70;;;;;;;23.71;100.00;101586.00;5117415;28;20080;-70
2022/07/20 07:33:46;;;;;;;24.13;9.02;;;;;;;23.61;100.00;101590.75;5117244;28;20065;-70
2022/07/20 07:36:12;;;;;;;19.27;9.05;;;;;;;23.67;100.00;101593.28;5117242;28;20027;-70
2022/07/20 07:38:37;;;;;;;18.27;9.10;;;;;;;23.83;100.00;101583.00;5097512;28;20392;-70
2022/07/20 07:41:02;;;;;;;19.42;9.30;;;;;;;23.96;100.00;101586.28;5096976;28;20111;-70
2022/07/20 07:43:28;;;;;;;15.77;8.73;;;;;;;24.05;100.00;101575.25;5096715;28;20031;-70
2022/07/20 07:45:53;;;;;;;15.18;8.13;;;;;;;24.05;100.00;101574.38;5096593;28;20106;-70
2022/07/20 07:48:19;;;;;;;15.73;8.15;;;;;;;24.17;100.00;101571.34;5102055;28;20031;-70
2022/07/20 07:50:45;;;;;;;16.70;8.25;;;;;;;24.37;100.00;101589.56;5117295;28;20020;-70
2022/07/20 07:53:11;;;;;;;20.70;8.43;;;;;;;24.39;100.00;101593.13;5084998;28;20031;-69
2022/07/20 07:55:38;;;;;;;15.73;8.15;;;;;;;24.37;100.00;101596.78;5102935;28;20119;-70
2022/07/20 07:58:07;;;;;;;18.88;9.15;;;;;;;24.50;100.00;101611.63;5096164;28;20390;-71
2022/07/20 08:00:35;;;;;;;17.45;8.70;;;;;;;24.52;100.00;101604.38;5096366;28;20101;-70
2022/07/20 08:03:01;;;;;;;16.88;8.38;;;;;;;24.65;100.00;101601.34;5096694;28;20463;-70
2022/07/20 08:05:26;;;;;;;14.32;7.85;;;;;;;24.83;100.00;101590.03;5078054;28;20016;-70
2022/07/20 08:07:52;;;;;;;18.35;8.38;;;;;;;24.88;100.00;101601.53;5096230;28;20036;-70
2022/07/20 08:10:17;;;;;;;17.88;8.50;;;;;;;25.06;98.33;101591.13;5096388;28;20352;-71
2022/07/20 08:12:43;;;;;;;23.33;7.18;;;;;;;24.99;95.41;101585.03;5096148;28;20024;-71
2022/07/20 08:15:10;;;;;;;14.80;7.43;;;;;;;25.13;95.16;101581.03;5096420;28;20353;-71
2022/07/20 08:17:36;;;;;;;15.02;6.82;;;;;;;25.20;90.45;101572.72;5116011;28;20526;-70
2022/07/20 08:20:01;;;;;;;13.98;7.00;;;;;;;25.34;90.71;101574.06;5085163;28;20161;-71
2022/07/20 08:22:27;;;;;;;17.92;7.18;;;;;;;25.35;87.59;101582.13;5096173;28;20027;-71
2022/07/20 08:24:52;;;;;;;12.95;6.25;;;;;;;25.20;85.19;101577.19;5109562;28;20065;-71
2022/07/20 08:27:18;;;;;;;23.30;6.72;;;;;;;25.27;85.70;101581.44;5096129;28;20035;-69
2022/07/20 08:29:43;;;;;;;13.25;6.00;;;;;;;25.24;83.17;101579.75;5095762;28;20012;-70
2022/07/20 08:32:08;;;;;;;13.13;6.15;;;;;;;25.33;84.48;101567.81;5116113;28;20028;-70
2022/07/20 08:34:34;;;;;;;16.13;6.10;;;;;;;25.62;85.14;101574.00;5116010;28;20042;-70
2022/07/20 08:36:59;;;;;;;14.35;6.43;;;;;;;25.30;83.73;101566.97;5109662;28;20046;-70
2022/07/20 08:39:25;;;;;;;21.60;7.07;;;;;;;25.36;83.44;101572.22;5095698;28;20026;-72
2022/07/20 08:41:50;;;;;;;18.52;5.80;;;;;;;25.24;84.07;101566.28;5095598;28;20388;-71
2022/07/20 08:44:16;;;;;;;16.33;6.20;;;;;;;25.38;84.30;101570.31;5095798;28;20089;-70
2022/07/20 08:46:44;;;;;;;23.17;6.50;;;;;;;25.27;84.44;101564.41;5095411;28;20020;-71
2022/07/20 08:49:13;;;;;;;16.92;6.38;;;;;;;25.33;85.37;101574.97;5109358;28;20027;-71
2022/07/20 08:51:38;;;;;;;16.02;6.03;;;;;;;25.33;86.22;101593.84;5095472;28;20467;-70
2022/07/20 08:54:05;;;;;;;19.67;6.00;;;;;;;25.18;86.50;101600.63;5095316;28;20031;-69
2022/07/20 08:56:30;;;;;;;14.50;5.72;;;;;;;25.06;88.38;101586.59;5095093;28;20556;-70
2022/07/20 08:58:56;;;;;;;17.45;6.18;;;;;;;24.88;88.89;101590.78;5095334;28;20056;-70
2022/07/20 09:01:21;;;;;;;16.88;6.05;;;;;;;24.81;90.85;101591.91;5095217;28;20028;-69
2022/07/20 09:04:10;;;;;;;17.05;5.78;;;;;;;24.84;91.04;101553.25;5095046;28;20020;-70
2022/07/20 09:06:45;;;;;;;14.90;5.60;;;;;;;24.70;91.79;101507.91;5104762;28;20031;-70
2022/07/20 09:09:10;;;;;;;17.00;5.85;;;;;;;24.82;92.01;101488.66;5115185;28;20054;-70
2022/07/20 09:11:36;;;;;;;12.93;5.95;;;;;;;25.00;91.40;101486.28;5115474;28;20046;-70
2022/07/20 09:14:01;;;;;;;9.35;6.20;;;;;;;24.90;89.35;101478.50;5096971;28;20327;-71
2022/07/20 09:16:46;;;;;;;13.43;6.60;;;;;;;24.86;89.56;101495.69;5114314;28;20474;-70
2022/07/20 09:19:14;;;;;;;12.13;5.75;;;;;;;24.84;89.78;101507.47;5108273;28;20031;-70
2022/07/20 09:21:40;;;;;;;13.10;6.15;;;;;;;24.88;90.45;101542.31;5090205;28;20031;-68
2022/07/20 09:24:08;;;;;;;16.75;6.45;;;;;;;24.99;91.01;101614.66;5105501;28;20092;-69
2022/07/20 09:26:35;;;;;;;11.15;6.13;;;;;;;25.23;91.26;101648.03;5115032;28;20023;-70
2022/07/20 09:29:03;;;;;;;14.00;6.30;;;;;;;25.56;90.45;101647.88;5115171;28;20421;-70
2022/07/20 09:31:34;;;;;;;15.98;6.53;;;;;;;25.78;88.04;101638.19;5115042;28;20019;-71
2022/07/20 09:34:06;;;;;;;13.18;6.57;;;;;;;25.57;87.52;101598.44;5114614;28;20072;-70
2022/07/20 09:36:34;;;;;;;14.40;6.47;;;;;;;25.85;88.33;101637.88;5114641;28;20472;-70
2022/07/20 09:39:18;;;;;;;12.98;7.22;;;;;;;25.72;85.36;101625.75;5114855;28;20055;-70
2022/07/20 09:41:50;;;;;;;19.33;9.05;;;;;;;25.75;85.20;101633.78;5114793;28;20117;-71
2022/07/20 09:44:24;;;;;;;16.03;8.67;;;;;;;25.87;84.15;101645.94;5114907;28;20069;-70
2022/07/20 09:46:49;;;;;;;17.50;9.60;;;;;;;25.92;86.18;101652.94;5114760;28;20280;-71
2022/07/20 09:49:15;;;;;;;19.00;7.47;;;;;;;25.89;87.49;101661.13;5114669;28;20080;-71
2022/07/20 09:51:43;;;;;;;18.88;8.40;;;;;;;25.98;87.41;101662.63;5106910;28;20020;-70
2022/07/20 09:54:14;;;;;;;18.15;10.23;;;;;;;26.22;84.42;101676.19;5094986;28;20031;-71
2022/07/20 09:56:45;;;;;;;22.92;10.80;;;;;;;26.12;85.62;101686.44;5105517;28;20079;-71
2022/07/20 09:59:12;;;;;;;16.73;9.63;;;;;;;25.68;86.13;101691.50;5094107;28;20486;-70
2022/07/20 10:01:45;;;;;;;16.85;9.10;;;;;;;25.71;86.97;101696.81;5094297;28;20475;-72
2022/07/20 10:04:12;;;;;;;15.50;8.65;;;;;;;25.65;88.97;101686.22;5093868;28;20035;-71
2022/07/20 10:06:39;;;;;;;11.23;7.38;;;;;;;25.28;90.52;101688.25;5075984;28;20039;-70
2022/07/20 10:09:06;;;;;;;10.13;6.63;;;;;;;25.19;91.43;101684.06;5079645;28;20031;-72
2022/07/20 10:11:32;;;;;;;14.07;7.22;;;;;;;25.16;93.91;101699.44;5114085;28;20027;-71
2022/07/20 10:14:01;;;;;;;14.48;6.32;;;;;;;25.18;92.44;101687.69;5095972;28;20485;-70
2022/07/20 10:16:43;;;;;;;17.92;6.32;;;;;;;25.32;91.84;101702.53;5102997;28;20523;-69
2022/07/20 10:19:08;;;;;;;12.38;6.28;;;;;;;25.46;91.13;101703.00;5094991;28;20411;-70
2022/07/20 10:21:38;;;;;;;11.82;5.13;;;;;;;25.70;91.21;101704.00;5106353;28;20027;-70
2022/07/20 10:24:27;;;;;;;12.52;6.10;;;;;;;25.71;91.26;101694.13;5100200;28;20455;-69
2022/07/20 10:27:02;;;;;;;11.15;5.40;;;;;;;25.50;93.94;101703.78;5113758;28;20050;-70
2022/07/20 10:29:43;;;;;;;11.75;5.05;;;;;;;25.11;94.41;101721.13;5113992;28;20027;-70
2022/07/20 10:32:17;;;;;;;10.27;4.75;;;;;;;25.15;92.11;101725.50;5094088;28;20495;-68
2022/07/20 10:34:54;;;;;;;12.32;5.57;;;;;;;25.08;93.31;101726.59;5093324;28;20032;-69
2022/07/20 10:37:38;;;;;;;11.43;4.65;;;;;;;25.22;91.02;101702.81;5075504;28;20024;-70
2022/07/20 10:40:15;;;;;;;10.45;5.07;;;;;;;25.14;92.91;101726.41;5093729;28;20088;-69
2022/07/20 10:42:53;;;;;;;12.73;4.82;;;;;;;25.07;96.11;101727.53;5093957;28;20392;-69
2022/07/20 10:47:46;;;;;;;17.77;6.30;;;;;;;25.25;94.71;101743.13;5113878;28;20039;-70
2022/07/20 10:50:21;;;;;;;10.98;6.00;;;;;;;25.06;96.47;101741.94;5113961;28;20321;-70
2022/07/20 10:52:48;;;;;;;17.05;6.32;;;;;;;25.13;97.02;101718.38;5111544;28;20034;-70
2022/07/20 10:55:37;;;;;;;11.02;6.18;;;;;;;24.78;99.74;101690.69;5094176;28;20036;-70
2022/07/20 10:58:08;;;;;;;14.00;6.28;;;;;;;24.64;100.00;101709.94;5091873;28;20061;-69
2022/07/20 11:00:42;;;;;;;18.55;6.60;;;;;;;24.56;100.00;101707.44;5113618;28;20019;-71
2022/07/20 11:03:21;;;;;;;14.57;6.68;;;;;;;24.50;100.00;101689.66;5113718;28;20059;-71
2022/07/20 11:05:57;;;;;;;14.35;7.03;;;;;;;24.26;100.00;101690.34;5113557;28;20051;-70
2022/07/20 11:08:22;;;;;;;11.48;6.85;;;;;;;24.13;100.00;101669.13;5113543;28;20425;-69
2022/07/20 11:10:48;;;;;;;11.32;6.22;;;;;;;23.96;100.00;101682.19;5113558;28;20028;-70
2022/07/20 11:13:13;;;;;;;16.48;6.72;;;;;;;23.69;100.00;101657.72;5113773;28;20110;-70
2022/07/20 11:15:40;;;;;;;11.63;6.35;;;;;;;23.35;100.00;101604.84;5113269;28;20099;-71
2022/07/20 11:18:07;;;;;;;16.15;7.13;;;;;;;23.24;100.00;101619.41;5113634;28;20106;-70